Time;durP1;ratioP1;P1;durP2;ratioP2;P2;SDS_P1;SDS_P2;PMS_P1;PMS_P2;Temp;Humidity;BMP_temperature;BMP_pressure;BME280_temperature;BME280_humidity;BME280_pressure;Samples;Min_cycle;Max_cycle;Signal;HPM_P1;HPM_P2
2022/01/12 00:00:56;;;;;;;6.32;5.65;;;-1.90;99.90;;;;;;5020442;28;20730;-78
2022/01/12 00:03:22;;;;;;;9.52;7.40;;;-1.90;99.90;;;;;;5036034;28;20203;-78
2022/01/12 00:05:48;;;;;;;9.20;6.25;;;-1.90;99.90;;;;;;5053386;28;20610;-77
2022/01/12 00:08:14;;;;;;;9.40;6.53;;;-1.90;99.90;;;;;;5049194;28;20209;-76
2022/01/12 00:10:40;;;;;;;9.50;6.30;;;-2.00;99.90;;;;;;5048693;28;20422;-77
2022/01/12 00:13:06;;;;;;;6.40;5.77;;;-2.00;99.90;;;;;;5048743;28;20221;-76
2022/01/12 00:15:32;;;;;;;7.43;6.47;;;-1.90;99.90;;;;;;5048906;28;20513;-77
2022/01/12 00:17:57;;;;;;;8.00;6.68;;;-1.90;99.90;;;;;;5030502;28;20215;-77
2022/01/12 00:20:23;;;;;;;8.43;6.17;;;-1.90;99.90;;;;;;5014235;28;20195;-77
2022/01/12 00:22:49;;;;;;;9.27;6.60;;;-2.00;99.90;;;;;;5030925;28;20709;-77
2022/01/12 00:33:14;;;;;;;10.07;7.60;;;-2.00;99.90;;;;;;5048854;28;20555;-77
2022/01/12 00:35:58;;;;;;;8.82;5.53;;;-2.00;99.90;;;;;;5030734;28;20222;-77
2022/01/12 00:38:29;;;;;;;9.02;6.95;;;-2.00;99.90;;;;;;5048480;28;20296;-76
2022/01/12 00:40:55;;;;;;;8.88;6.88;;;-2.00;99.90;;;;;;5030410;28;20185;-76
2022/01/12 00:43:23;;;;;;;7.60;6.50;;;-2.10;99.90;;;;;;5048309;28;20196;-76
2022/01/12 00:45:49;;;;;;;12.15;7.07;;;-2.10;99.90;;;;;;5030123;28;20418;-76
2022/01/12 00:48:17;;;;;;;9.40;7.20;;;-2.10;99.90;;;;;;5030444;28;20660;-76
2022/01/12 00:50:46;;;;;;;10.93;6.85;;;-2.20;99.90;;;;;;5014068;28;20200;-76
2022/01/12 00:53:11;;;;;;;8.10;6.47;;;-2.20;99.90;;;;;;5048385;28;20190;-76
2022/01/12 00:55:37;;;;;;;8.20;6.53;;;-2.20;99.90;;;;;;5030829;28;20656;-76
2022/01/12 00:58:03;;;;;;;11.70;7.70;;;-2.30;99.90;;;;;;5052157;28;20203;-76
2022/01/12 01:00:30;;;;;;;11.23;7.85;;;-2.20;99.90;;;;;;5052306;28;20183;-76
2022/01/12 01:02:56;;;;;;;10.35;7.38;;;-2.20;99.90;;;;;;5052590;28;20841;-76
2022/01/12 01:05:23;;;;;;;9.60;7.82;;;-2.20;99.90;;;;;;5034227;28;20210;-76
2022/01/12 01:07:50;;;;;;;9.88;6.82;;;-2.10;99.90;;;;;;5052596;28;20187;-76
2022/01/12 01:10:27;;;;;;;9.02;7.50;;;-2.10;99.90;;;;;;5052503;28;20184;-77
2022/01/12 01:12:53;;;;;;;7.65;6.57;;;-2.10;99.90;;;;;;5054290;28;20202;-77
2022/01/12 01:15:28;;;;;;;10.63;7.30;;;-2.10;99.90;;;;;;5055832;28;20251;-77
2022/01/12 01:26:19;;;;;;;10.27;7.90;;;-2.30;99.90;;;;;;5016934;28;20192;-75
2022/01/12 01:28:45;;;;;;;14.30;8.70;;;-2.20;99.90;;;;;;5051924;28;20176;-76
2022/01/12 01:31:11;;;;;;;12.63;7.33;;;-2.10;99.90;;;;;;5033730;28;20701;-76
2022/01/12 01:33:37;;;;;;;12.67;8.30;;;-2.10;99.90;;;;;;5033563;28;20214;-76
2022/01/12 01:36:02;;;;;;;12.07;7.20;;;-2.10;99.90;;;;;;5033693;28;20187;-75
2022/01/12 01:38:28;;;;;;;11.33;8.93;;;-2.00;99.90;;;;;;5051573;28;20672;-77
2022/01/12 01:40:54;;;;;;;12.87;7.90;;;-1.90;99.90;;;;;;5033479;28;20180;-76
2022/01/12 01:54:03;;;;;;;11.90;8.15;;;-1.70;99.90;;;;;;5040032;28;20237;-77
2022/01/12 01:56:29;;;;;;;11.57;7.90;;;-1.70;99.90;;;;;;5036580;28;20750;-77
2022/01/12 01:58:55;;;;;;;9.40;7.78;;;-1.70;99.90;;;;;;5037449;28;20626;-77
2022/01/12 02:01:21;;;;;;;10.00;7.93;;;-1.70;99.90;;;;;;5052741;28;20183;-77
2022/01/12 02:03:47;;;;;;;13.93;9.60;;;-1.70;99.90;;;;;;5035483;28;20721;-77
2022/01/12 02:06:13;;;;;;;12.20;9.17;;;-1.60;99.90;;;;;;5054496;28;20606;-77
2022/01/12 02:08:39;;;;;;;18.23;9.20;;;-1.70;99.90;;;;;;5037430;28;20184;-77
2022/01/12 02:11:04;;;;;;;13.90;9.30;;;-1.70;99.90;;;;;;5035801;28;20179;-77
2022/01/12 02:13:31;;;;;;;10.50;8.90;;;-1.70;99.90;;;;;;5035276;28;20215;-76
2022/01/12 02:15:58;;;;;;;11.48;8.70;;;-1.70;99.90;;;;;;5052525;28;20201;-75
2022/01/12 02:40:26;;;;;;;13.25;9.27;;;-1.10;99.90;;;;;;5043037;28;20185;-77
2022/01/12 02:51:13;;;;;;;6.85;5.63;;;-0.70;99.90;;;;;;5055787;28;20230;-77
2022/01/12 02:53:43;;;;;;;9.57;7.45;;;-0.70;99.90;;;;;;5057020;28;20196;-77
2022/01/12 02:56:37;;;;;;;11.90;7.40;;;-0.70;99.90;;;;;;5039443;28;20208;-78
2022/01/12 02:59:02;;;;;;;13.20;7.68;;;-0.60;99.90;;;;;;5041183;28;20180;-78
2022/01/12 03:03:57;;;;;;;9.35;6.32;;;-0.70;99.90;;;;;;5054029;28;20200;-77
2022/01/12 03:06:28;;;;;;;8.88;6.88;;;-0.60;99.90;;;;;;5054033;28;20188;-77
2022/01/12 03:08:54;;;;;;;8.23;7.20;;;-0.60;99.90;;;;;;5019105;28;20705;-77
2022/01/12 03:11:21;;;;;;;7.95;6.70;;;-0.70;99.90;;;;;;5032262;28;20189;-77
2022/01/12 03:13:48;;;;;;;7.80;6.07;;;-0.70;99.90;;;;;;5036117;28;20206;-78
2022/01/12 03:16:16;;;;;;;9.90;7.57;;;-0.70;99.90;;;;;;5054358;28;20585;-77
2022/01/12 03:18:43;;;;;;;9.77;6.72;;;-0.70;99.90;;;;;;5051627;28;20272;-78
2022/01/12 03:21:10;;;;;;;10.50;7.72;;;-0.70;99.90;;;;;;5034923;28;20645;-77
2022/01/12 03:23:36;;;;;;;9.68;7.57;;;-0.80;99.90;;;;;;5051241;28;20207;-77
2022/01/12 03:26:03;;;;;;;9.75;6.80;;;-0.80;99.90;;;;;;5032585;28;20195;-77
2022/01/12 03:28:28;;;;;;;10.35;6.68;;;-0.80;99.90;;;;;;5032886;28;20190;-77
2022/01/12 03:30:58;;;;;;;8.83;6.40;;;-0.90;99.90;;;;;;5035885;28;20177;-77
2022/01/12 03:38:40;;;;;;;6.50;5.65;;;-0.90;99.90;;;;;;5053245;28;20206;-77
2022/01/12 03:41:05;;;;;;;9.50;6.40;;;-0.90;99.90;;;;;;5052675;28;20645;-77
2022/01/12 03:43:31;;;;;;;8.63;6.40;;;-0.90;99.90;;;;;;5053067;28;20213;-77
2022/01/12 03:45:57;;;;;;;7.27;6.17;;;-1.00;99.90;;;;;;5018447;28;20180;-77
2022/01/12 03:48:22;;;;;;;10.23;5.97;;;-1.00;99.90;;;;;;5053000;28;20189;-77
2022/01/12 03:50:48;;;;;;;9.23;7.17;;;-1.00;99.90;;;;;;5051786;28;20267;-77
2022/01/12 03:53:15;;;;;;;10.80;7.00;;;-1.00;99.90;;;;;;5049495;28;20267;-76
2022/01/12 03:55:44;;;;;;;8.45;6.20;;;-1.00;99.90;;;;;;5032406;28;20242;-77
2022/01/12 03:58:12;;;;;;;9.30;7.00;;;-0.90;99.90;;;;;;5049405;28;20227;-76
2022/01/12 04:00:38;;;;;;;13.10;6.60;;;-0.90;99.90;;;;;;5049344;28;20176;-76
2022/01/12 04:03:06;;;;;;;8.10;6.97;;;-0.90;99.90;;;;;;5049363;28;20258;-75
2022/01/12 04:08:24;;;;;;;8.95;7.10;;;-0.90;99.90;;;;;;5049851;28;20211;-76
2022/01/12 04:10:54;;;;;;;11.23;8.00;;;-0.90;99.90;;;;;;5049618;28;20194;-76
2022/01/12 04:13:25;;;;;;;8.00;6.55;;;-1.10;99.90;;;;;;5031524;28;20218;-76
2022/01/12 04:15:54;;;;;;;10.45;7.35;;;-1.10;99.90;;;;;;5032720;28;20192;-76
2022/01/12 04:18:20;;;;;;;9.55;7.60;;;-1.10;99.90;;;;;;5032384;28;20231;-76
2022/01/12 04:20:47;;;;;;;12.07;8.93;;;-1.10;99.90;;;;;;5033528;28;20296;-77
2022/01/12 04:23:17;;;;;;;13.52;9.15;;;-1.20;99.90;;;;;;5033889;28;20515;-77
2022/01/12 04:25:47;;;;;;;9.43;8.07;;;-1.40;99.90;;;;;;5036347;28;20271;-77
2022/01/12 04:28:13;;;;;;;12.13;9.02;;;-1.60;99.90;;;;;;5055000;28;20286;-77
2022/01/12 04:30:39;;;;;;;11.65;7.90;;;-1.70;99.90;;;;;;5054875;28;20188;-77
2022/01/12 04:33:05;;;;;;;13.43;8.67;;;-1.80;99.90;;;;;;5033903;28;20181;-76
2022/01/12 04:35:34;;;;;;;10.80;8.23;;;-1.90;99.90;;;;;;5014231;28;20454;-76
2022/01/12 04:38:00;;;;;;;13.50;8.70;;;-2.00;99.90;;;;;;5031211;28;20204;-76
2022/01/12 04:40:26;;;;;;;12.27;8.40;;;-2.00;99.90;;;;;;5048540;28;20229;-76
2022/01/12 04:42:56;;;;;;;11.20;8.30;;;-2.00;99.90;;;;;;5048725;28;20176;-76
2022/01/12 04:50:25;;;;;;;10.68;7.95;;;-2.10;99.90;;;;;;5030932;28;20184;-76
2022/01/12 04:52:50;;;;;;;10.05;7.78;;;-2.10;99.90;;;;;;5030228;28;20195;-76
2022/01/12 04:55:16;;;;;;;10.30;8.33;;;-2.10;99.90;;;;;;5048435;28;20199;-75
2022/01/12 04:57:42;;;;;;;14.10;9.10;;;-2.00;99.90;;;;;;5030471;28;20473;-75
2022/01/12 05:00:15;;;;;;;12.07;9.27;;;-2.00;99.90;;;;;;5048227;28;20443;-75
2022/01/12 05:08:21;;;;;;;11.45;8.55;;;-2.20;99.90;;;;;;5048573;28;20218;-75
2022/01/12 05:13:33;;;;;;;10.35;7.93;;;-2.30;99.90;;;;;;5048226;28;20215;-76
2022/01/12 05:16:00;;;;;;;10.10;7.78;;;-2.40;99.90;;;;;;5013815;28;20184;-75
2022/01/12 05:18:29;;;;;;;11.50;8.20;;;-2.50;99.90;;;;;;5030019;28;20192;-76
2022/01/12 05:20:56;;;;;;;11.32;7.88;;;-2.60;99.90;;;;;;5029834;28;20190;-76
2022/01/12 05:23:21;;;;;;;11.30;8.38;;;-2.60;99.90;;;;;;5047847;28;20678;-76
2022/01/12 05:25:47;;;;;;;11.77;8.80;;;-2.60;99.90;;;;;;5047978;28;20186;-75
2022/01/12 05:28:14;;;;;;;12.10;8.60;;;-2.60;99.90;;;;;;5048051;28;20441;-76
2022/01/12 05:30:40;;;;;;;13.20;9.50;;;-2.60;99.90;;;;;;5047880;28;20422;-76
2022/01/12 05:33:06;;;;;;;11.70;8.27;;;-2.60;99.90;;;;;;5047806;28;20180;-76
2022/01/12 05:35:33;;;;;;;11.25;8.27;;;-2.60;99.90;;;;;;5047717;28;20234;-77
2022/01/12 05:38:04;;;;;;;11.40;8.10;;;-2.70;99.90;;;;;;5047732;28;20203;-75
2022/01/12 05:40:31;;;;;;;10.75;8.73;;;-2.70;99.90;;;;;;5047735;28;20648;-76
2022/01/12 05:43:00;;;;;;;11.82;8.45;;;-2.60;99.90;;;;;;5031571;28;20254;-76
2022/01/12 05:45:27;;;;;;;9.82;7.97;;;-2.60;99.90;;;;;;5051456;28;20182;-75
2022/01/12 05:50:19;;;;;;;10.80;8.20;;;-2.70;99.90;;;;;;5033662;28;20279;-76
2022/01/12 05:52:45;;;;;;;12.35;9.20;;;-2.60;99.90;;;;;;5051528;28;20195;-75
2022/01/12 05:55:12;;;;;;;11.37;8.23;;;-2.70;99.90;;;;;;5033287;28;20208;-75
2022/01/12 05:57:38;;;;;;;9.00;7.78;;;-2.70;99.90;;;;;;5033330;28;20210;-76
2022/01/12 06:00:15;;;;;;;10.85;8.02;;;-2.70;99.90;;;;;;5051083;28;20258;-75
2022/01/12 06:02:41;;;;;;;12.15;8.88;;;-2.70;99.90;;;;;;5032903;28;20690;-76
2022/01/12 06:05:08;;;;;;;10.37;8.20;;;-2.70;99.90;;;;;;5032140;28;20203;-76
2022/01/12 06:07:35;;;;;;;10.73;7.82;;;-2.80;99.90;;;;;;5050106;28;20183;-76
2022/01/12 06:10:01;;;;;;;12.63;9.00;;;-2.80;99.90;;;;;;5050120;28;20183;-76
2022/01/12 06:12:27;;;;;;;13.18;7.70;;;-2.70;99.90;;;;;;5050011;28;20190;-76
2022/01/12 06:14:53;;;;;;;9.10;7.80;;;-2.80;99.90;;;;;;5031822;28;20207;-75
2022/01/12 06:17:18;;;;;;;13.73;9.23;;;-2.80;99.90;;;;;;5049920;28;20522;-75
2022/01/12 06:19:44;;;;;;;13.10;8.37;;;-2.70;99.90;;;;;;5049957;28;20200;-75
2022/01/12 06:22:10;;;;;;;9.70;7.50;;;-2.70;99.90;;;;;;5032198;28;20411;-76
2022/01/12 06:24:36;;;;;;;13.00;9.27;;;-2.70;99.90;;;;;;5049754;28;20202;-76
2022/01/12 06:27:04;;;;;;;10.60;8.50;;;-2.70;99.90;;;;;;5031892;28;20296;-75
2022/01/12 06:32:09;;;;;;;14.57;8.82;;;-2.70;99.90;;;;;;5049715;28;20232;-76
2022/01/12 06:34:35;;;;;;;10.48;8.43;;;-2.70;99.90;;;;;;5049872;28;20592;-75
2022/01/12 06:37:01;;;;;;;12.40;8.95;;;-2.70;99.90;;;;;;5049642;28;20582;-75
2022/01/12 06:39:27;;;;;;;11.70;8.93;;;-2.60;99.90;;;;;;5049733;28;20179;-75
2022/01/12 06:41:55;;;;;;;12.15;8.55;;;-2.60;99.90;;;;;;5049680;28;20176;-75
2022/01/12 06:44:25;;;;;;;14.30;8.70;;;-2.60;99.90;;;;;;5049560;28;20199;-75
2022/01/12 06:46:52;;;;;;;11.93;9.02;;;-2.50;99.90;;;;;;5049805;28;20176;-75
2022/01/12 06:49:19;;;;;;;16.45;10.63;;;-2.50;99.90;;;;;;5049508;28;20207;-75
2022/01/12 06:51:45;;;;;;;12.85;9.95;;;-2.50;99.90;;;;;;5049608;28;20183;-75
2022/01/12 06:54:12;;;;;;;12.00;8.27;;;-2.50;99.90;;;;;;5048371;28;20210;-75
2022/01/12 06:56:39;;;;;;;17.75;10.02;;;-2.50;99.90;;;;;;5049283;28;20199;-75
2022/01/12 06:59:05;;;;;;;11.35;8.65;;;-2.60;99.90;;;;;;5049264;28;20172;-75
2022/01/12 07:01:31;;;;;;;10.82;8.15;;;-2.50;99.90;;;;;;5031229;28;20199;-75
2022/01/12 07:03:57;;;;;;;12.40;9.90;;;-2.50;99.90;;;;;;5049208;28;20573;-75
2022/01/12 07:06:23;;;;;;;11.65;8.85;;;-2.40;99.90;;;;;;5049627;28;20499;-75
2022/01/12 07:08:49;;;;;;;16.77;9.60;;;-2.40;99.90;;;;;;5049236;28;20199;-76
2022/01/12 07:11:15;;;;;;;13.07;9.80;;;-2.40;99.90;;;;;;5048805;28;20656;-75
2022/01/12 07:13:41;;;;;;;11.80;8.60;;;-2.50;99.90;;;;;;5048750;28;20446;-75
2022/01/12 07:16:06;;;;;;;12.80;9.70;;;-2.70;99.90;;;;;;5048753;28;20172;-76
2022/01/12 07:18:32;;;;;;;15.17;10.53;;;-2.80;99.90;;;;;;5030470;28;20285;-76
2022/01/12 07:20:59;;;;;;;15.88;10.75;;;-2.80;99.90;;;;;;5048627;28;20222;-76
2022/01/12 07:23:26;;;;;;;14.43;10.10;;;-2.90;99.90;;;;;;5048469;28;20203;-76
2022/01/12 07:25:52;;;;;;;15.75;9.63;;;-2.90;99.90;;;;;;5013378;28;20262;-76
2022/01/12 07:28:19;;;;;;;12.75;9.52;;;-2.80;99.90;;;;;;5047814;28;20179;-76
2022/01/12 07:30:45;;;;;;;12.13;8.95;;;-2.70;99.90;;;;;;5029508;28;20265;-76
2022/01/12 07:33:11;;;;;;;12.33;9.03;;;-2.70;99.90;;;;;;5047761;28;20721;-76
2022/01/12 07:35:37;;;;;;;14.60;9.55;;;-2.70;99.90;;;;;;5013012;28;20442;-76
2022/01/12 07:38:02;;;;;;;12.53;8.80;;;-2.60;99.90;;;;;;5047466;28;20668;-75
2022/01/12 07:40:29;;;;;;;13.03;9.90;;;-2.70;99.90;;;;;;5047507;28;20422;-76
2022/01/12 07:42:55;;;;;;;15.35;9.95;;;-2.70;99.90;;;;;;5047430;28;20176;-76
2022/01/12 07:45:21;;;;;;;16.83;11.20;;;-2.60;99.90;;;;;;5047319;28;20687;-76
2022/01/12 07:47:47;;;;;;;14.32;10.43;;;-2.50;99.90;;;;;;5047641;28;20306;-75
2022/01/12 07:50:14;;;;;;;19.25;11.05;;;-2.40;99.90;;;;;;5029257;28;20202;-76
2022/01/12 07:52:39;;;;;;;14.25;9.20;;;-2.40;99.90;;;;;;5029276;28;20192;-76
2022/01/12 07:55:06;;;;;;;18.23;10.60;;;-2.30;99.90;;;;;;5029455;28;20207;-76
2022/01/12 07:57:33;;;;;;;15.10;10.10;;;-2.20;99.90;;;;;;5047110;28;20267;-75
2022/01/12 07:59:58;;;;;;;13.40;9.20;;;-2.10;99.90;;;;;;5047261;28;20180;-76
2022/01/12 08:02:24;;;;;;;15.97;9.83;;;-2.10;99.90;;;;;;5029086;28;20176;-76
2022/01/12 08:04:50;;;;;;;18.40;11.95;;;-2.00;99.90;;;;;;5046852;28;20314;-76
2022/01/12 08:07:16;;;;;;;16.70;11.95;;;-1.90;99.90;;;;;;5012694;28;20230;-76
2022/01/12 08:09:43;;;;;;;15.80;10.03;;;-1.90;99.90;;;;;;5046884;28;20218;-76
2022/01/12 08:12:09;;;;;;;11.88;8.40;;;-1.80;99.90;;;;;;5047048;28;20669;-76
2022/01/12 08:14:35;;;;;;;12.88;8.00;;;-1.80;99.90;;;;;;5028944;28;20242;-76
2022/01/12 08:17:01;;;;;;;12.97;8.13;;;-1.50;99.90;;;;;;5047242;28;20216;-76
2022/01/12 08:19:28;;;;;;;13.65;8.38;;;-1.20;99.90;;;;;;5047113;28;20184;-74
2022/01/12 08:21:54;;;;;;;12.45;8.02;;;-0.70;99.90;;;;;;5029486;28;20202;-76
2022/01/12 08:24:20;;;;;;;9.27;7.63;;;0.10;99.90;;;;;;5047467;28;20704;-75
2022/01/12 08:26:46;;;;;;;9.20;7.80;;;0.50;99.90;;;;;;5029135;28;20211;-76
2022/01/12 08:29:15;;;;;;;9.90;8.00;;;0.90;99.90;;;;;;5029246;28;20187;-76
2022/01/12 08:31:45;;;;;;;11.27;8.38;;;1.20;99.90;;;;;;5048315;28;20798;-75
2022/01/12 08:34:11;;;;;;;10.05;8.30;;;2.20;99.90;;;;;;5047113;28;20215;-75
2022/01/12 08:36:39;;;;;;;10.27;8.60;;;3.10;99.90;;;;;;5013409;28;20314;-77
2022/01/12 08:39:08;;;;;;;11.30;8.15;;;4.10;98.10;;;;;;5048738;28;20180;-78
2022/01/12 08:41:34;;;;;;;9.15;7.80;;;4.70;95.70;;;;;;5032017;28;20183;-78
2022/01/12 08:44:00;;;;;;;9.90;8.03;;;5.40;93.10;;;;;;5032172;28;20199;-77
2022/01/12 08:46:25;;;;;;;12.27;9.23;;;6.00;93.50;;;;;;5033890;28;20422;-78
2022/01/12 08:48:51;;;;;;;12.43;9.53;;;6.70;90.50;;;;;;5052341;28;20187;-77
2022/01/12 08:51:17;;;;;;;10.93;8.30;;;6.90;91.00;;;;;;5034574;28;20195;-77
2022/01/12 08:53:42;;;;;;;10.80;8.67;;;7.80;87.70;;;;;;5017100;28;20208;-77
2022/01/12 08:56:08;;;;;;;11.17;9.43;;;8.40;80.70;;;;;;5017529;28;20199;-77
2022/01/12 08:58:34;;;;;;;11.50;9.53;;;9.30;78.30;;;;;;5029767;28;20211;-76
2022/01/12 09:01:03;;;;;;;10.70;9.60;;;9.40;75.70;;;;;;5047959;28;20196;-76
2022/01/12 09:03:30;;;;;;;13.17;10.77;;;9.50;73.50;;;;;;5048334;28;20495;-77
2022/01/12 09:05:56;;;;;;;12.10;10.13;;;10.00;71.50;;;;;;5047439;28;20476;-75
2022/01/12 09:08:22;;;;;;;12.30;10.93;;;9.80;69.50;;;;;;5048443;28;20415;-76
2022/01/12 09:10:48;;;;;;;11.27;10.13;;;9.60;70.60;;;;;;5047003;28;20517;-75
2022/01/12 09:13:13;;;;;;;17.33;11.67;;;9.60;68.60;;;;;;5030235;28;20410;-76
2022/01/12 09:15:39;;;;;;;15.23;12.87;;;9.20;69.40;;;;;;5029954;28;20294;-76
2022/01/12 09:18:05;;;;;;;13.80;12.40;;;8.70;72.50;;;;;;5049237;28;20298;-77
2022/01/12 09:20:32;;;;;;;14.20;10.77;;;7.90;73.80;;;;;;5016097;28;20591;-76
2022/01/12 09:22:58;;;;;;;16.37;12.77;;;6.80;78.40;;;;;;5050616;28;20179;-76
2022/01/12 09:25:24;;;;;;;13.57;11.33;;;6.00;82.90;;;;;;5032772;28;20966;-76
2022/01/12 09:27:50;;;;;;;13.93;10.60;;;5.60;86.60;;;;;;5050994;28;20422;-76
2022/01/12 09:30:18;;;;;;;15.47;10.93;;;4.80;90.40;;;;;;5050632;28;20421;-76
2022/01/12 09:32:44;;;;;;;18.27;11.43;;;4.70;91.90;;;;;;5051109;28;20472;-76
2022/01/12 09:35:11;;;;;;;16.07;12.33;;;4.30;93.60;;;;;;5032215;28;20470;-75
2022/01/12 09:37:37;;;;;;;13.97;11.17;;;4.20;94.80;;;;;;5050545;28;20447;-75
2022/01/12 09:40:04;;;;;;;15.40;11.27;;;4.30;94.60;;;;;;5050506;28;21092;-75
2022/01/12 09:42:29;;;;;;;14.10;10.97;;;4.50;94.40;;;;;;5032298;28;20915;-76
2022/01/12 09:44:56;;;;;;;15.83;11.80;;;5.60;93.70;;;;;;5015927;28;20450;-75
2022/01/12 09:47:21;;;;;;;16.17;12.23;;;6.50;90.60;;;;;;5050643;28;20679;-76
2022/01/12 09:49:47;;;;;;;17.80;13.70;;;7.60;87.30;;;;;;5050828;28;20426;-75
2022/01/12 09:52:14;;;;;;;14.40;11.73;;;8.10;84.20;;;;;;5050832;28;20182;-76
2022/01/12 09:54:40;;;;;;;15.23;12.30;;;8.90;79.80;;;;;;5051434;28;20273;-76
2022/01/12 09:57:06;;;;;;;17.27;13.20;;;9.50;77.30;;;;;;5051267;28;20463;-76
2022/01/12 09:59:32;;;;;;;15.50;12.00;;;9.90;74.40;;;;;;5051777;28;20409;-76
2022/01/12 10:01:58;;;;;;;13.33;10.50;;;10.20;71.00;;;;;;5033376;28;20506;-76
2022/01/12 10:04:27;;;;;;;15.40;11.40;;;10.90;69.70;;;;;;5032991;28;20202;-77
2022/01/12 10:07:02;;;;;;;15.50;12.27;;;11.90;67.00;;;;;;5032974;28;20418;-76
2022/01/12 10:09:44;;;;;;;14.27;12.50;;;12.70;62.80;;;;;;5033627;28;20779;-76
2022/01/12 10:12:19;;;;;;;13.03;10.70;;;13.60;58.30;;;;;;5034945;28;20790;-76
2022/01/12 10:14:52;;;;;;;12.83;10.20;;;13.40;56.50;;;;;;5050890;28;20442;-76
2022/01/12 10:17:40;;;;;;;13.00;10.10;;;14.10;54.00;;;;;;5016859;28;20470;-75
2022/01/12 10:20:12;;;;;;;13.43;12.00;;;13.90;52.40;;;;;;5034540;28;20889;-76
2022/01/12 10:22:43;;;;;;;14.23;11.60;;;14.10;54.30;;;;;;5051594;28;21011;-75
2022/01/12 10:25:17;;;;;;;13.77;11.73;;;14.20;52.00;;;;;;5033268;28;21285;-76
2022/01/12 10:27:44;;;;;;;12.43;11.07;;;13.90;52.20;;;;;;5050187;28;20424;-77
2022/01/12 10:30:28;;;;;;;12.40;11.03;;;13.60;52.30;;;;;;5051026;28;20439;-77
2022/01/12 10:32:59;;;;;;;12.00;10.30;;;14.80;53.40;;;;;;5051339;28;20499;-77
2022/01/12 10:35:26;;;;;;;13.07;11.10;;;15.40;50.80;;;;;;5050984;28;20556;-77
2022/01/12 10:37:52;;;;;;;15.50;11.97;;;15.40;49.30;;;;;;5051036;28;20456;-78
2022/01/12 10:40:18;;;;;;;16.23;11.97;;;15.70;50.10;;;;;;5031984;28;20418;-77
2022/01/12 10:42:45;;;;;;;12.97;10.90;;;16.10;48.70;;;;;;5049300;28;20269;-77
2022/01/12 10:45:11;;;;;;;14.10;10.60;;;16.10;46.50;;;;;;5049463;28;20725;-76
2022/01/12 10:47:37;;;;;;;12.33;11.03;;;16.10;47.50;;;;;;5049217;28;20427;-77
2022/01/12 10:50:08;;;;;;;13.70;11.10;;;16.10;46.70;;;;;;5031387;28;20186;-76
2022/01/12 10:52:40;;;;;;;13.23;11.67;;;16.20;46.70;;;;;;5030895;28;20278;-77
2022/01/12 10:55:08;;;;;;;13.53;11.33;;;16.20;46.20;;;;;;5049081;28;20876;-76
2022/01/12 10:57:38;;;;;;;12.13;10.87;;;16.20;46.40;;;;;;5014898;28;20518;-76
2022/01/12 11:00:20;;;;;;;12.80;10.20;;;15.90;45.70;;;;;;5048965;28;20996;-77
2022/01/12 11:02:58;;;;;;;16.37;11.70;;;15.70;46.20;;;;;;5030227;28;20425;-76
2022/01/12 11:05:26;;;;;;;12.60;10.90;;;15.90;46.40;;;;;;5049540;28;20443;-75
2022/01/12 11:07:53;;;;;;;15.77;12.23;;;15.20;45.90;;;;;;5049611;28;20788;-76
2022/01/12 11:10:20;;;;;;;12.70;10.00;;;14.90;46.70;;;;;;5048758;28;20467;-76
2022/01/12 11:12:47;;;;;;;14.50;12.40;;;14.80;47.70;;;;;;5030824;28;20782;-75
2022/01/12 11:15:15;;;;;;;16.57;12.17;;;15.30;48.00;;;;;;5048514;28;20442;-76
2022/01/12 11:17:43;;;;;;;13.73;12.00;;;14.50;47.00;;;;;;5048623;28;20512;-76
2022/01/12 11:20:28;;;;;;;14.93;11.67;;;13.90;47.20;;;;;;5049886;28;20427;-75
2022/01/12 11:23:06;;;;;;;12.10;10.37;;;13.60;48.60;;;;;;5049051;28;20505;-75
2022/01/12 11:25:34;;;;;;;15.23;11.23;;;13.40;50.10;;;;;;5049309;28;20428;-76
2022/01/12 11:28:18;;;;;;;20.90;11.67;;;13.30;49.70;;;;;;5048347;28;20433;-75
2022/01/12 11:30:44;;;;;;;14.20;11.33;;;12.20;51.30;;;;;;5015491;28;20509;-76
2022/01/12 11:33:11;;;;;;;12.83;10.33;;;12.20;52.30;;;;;;5048771;28;20448;-76
2022/01/12 11:35:59;;;;;;;15.07;11.37;;;11.80;53.20;;;;;;5031009;28;20441;-76
2022/01/12 11:38:28;;;;;;;16.90;11.00;;;11.80;53.50;;;;;;5048610;28;20500;-76
2022/01/12 11:40:56;;;;;;;10.83;9.73;;;12.10;53.30;;;;;;5029890;28;21104;-76
2022/01/12 11:43:29;;;;;;;13.80;10.60;;;12.00;53.20;;;;;;5048806;28;21182;-76
2022/01/12 11:46:28;;;;;;;10.93;9.50;;;12.50;54.10;;;;;;5030986;28;20799;-76
2022/01/12 11:48:59;;;;;;;12.40;10.37;;;12.80;52.80;;;;;;4993915;28;20441;-74
2022/01/12 11:51:42;;;;;;;13.20;10.10;;;12.60;53.20;;;;;;5047733;28;20419;-75
2022/01/12 11:54:12;;;;;;;15.67;9.80;;;12.30;53.00;;;;;;5047783;28;20447;-74
2022/01/12 11:57:08;;;;;;;11.20;9.80;;;12.60;53.80;;;;;;5029634;28;20456;-75
2022/01/12 11:59:55;;;;;;;12.50;10.50;;;12.80;53.50;;;;;;5048063;28;20421;-76
2022/01/12 12:02:31;;;;;;;12.10;10.80;;;12.60;54.20;;;;;;5048338;28;20471;-76
2022/01/12 12:04:59;;;;;;;16.70;11.53;;;12.30;53.20;;;;;;5047680;28;20514;-76
2022/01/12 12:07:26;;;;;;;13.00;10.80;;;12.00;54.30;;;;;;5047264;28;20433;-76
2022/01/12 12:09:56;;;;;;;17.10;11.13;;;11.80;53.80;;;;;;5028998;28;20506;-76
2022/01/12 12:12:23;;;;;;;15.53;12.37;;;11.90;54.10;;;;;;5029442;28;20478;-76
2022/01/12 12:14:53;;;;;;;13.70;11.60;;;11.50;53.70;;;;;;5046942;28;20444;-76
2022/01/12 12:17:20;;;;;;;14.57;11.83;;;11.30;54.40;;;;;;5046919;28;21017;-75
2022/01/12 12:19:47;;;;;;;16.03;11.80;;;10.90;55.50;;;;;;5046975;28;20996;-76
2022/01/12 12:22:15;;;;;;;15.87;12.50;;;10.90;56.10;;;;;;5012921;28;20486;-77
2022/01/12 12:24:43;;;;;;;14.87;11.67;;;9.90;57.50;;;;;;5028798;28;20433;-75
2022/01/12 12:27:10;;;;;;;19.87;12.40;;;8.90;60.00;;;;;;5046910;28;20432;-75
2022/01/12 12:29:37;;;;;;;15.97;11.90;;;8.10;62.10;;;;;;5029231;28;20423;-76
2022/01/12 12:32:05;;;;;;;16.17;12.77;;;7.80;66.60;;;;;;5046807;28;20426;-75
2022/01/12 12:34:33;;;;;;;15.07;11.80;;;7.00;68.50;;;;;;5047054;28;20508;-75
2022/01/12 12:37:08;;;;;;;14.40;11.90;;;6.80;72.10;;;;;;5046555;28;20967;-76
2022/01/12 12:39:37;;;;;;;17.20;11.37;;;6.80;74.50;;;;;;5028901;28;20958;-76
2022/01/12 12:42:05;;;;;;;16.93;12.73;;;6.20;76.90;;;;;;5046868;28;20410;-76
2022/01/12 12:44:33;;;;;;;17.07;11.90;;;6.10;78.40;;;;;;5046556;28;20461;-76
2022/01/12 12:47:26;;;;;;;14.60;11.57;;;6.10;80.40;;;;;;5028459;28;20432;-75
2022/01/12 12:49:58;;;;;;;16.27;11.53;;;5.80;82.40;;;;;;5042498;28;20982;-76
2022/01/12 12:52:30;;;;;;;15.43;11.53;;;5.90;83.40;;;;;;5047668;28;20414;-77
2022/01/12 12:54:59;;;;;;;16.00;11.90;;;6.30;82.70;;;;;;5050731;28;20879;-77
2022/01/12 12:57:26;;;;;;;13.70;10.57;;;6.10;83.30;;;;;;5050899;28;20557;-77
2022/01/12 13:00:03;;;;;;;17.30;12.70;;;6.20;83.90;;;;;;5032800;28;20418;-77
2022/01/12 13:02:35;;;;;;;15.70;11.20;;;5.90;84.10;;;;;;5050815;28;20421;-76
2022/01/12 13:05:06;;;;;;;11.73;9.60;;;6.00;85.30;;;;;;5032092;28;20469;-77
2022/01/12 13:07:43;;;;;;;17.60;11.50;;;5.90;85.00;;;;;;5050691;28;21286;-77
2022/01/12 13:10:15;;;;;;;17.27;10.67;;;6.10;86.20;;;;;;5032612;28;20475;-77
2022/01/12 13:12:48;;;;;;;13.70;9.90;;;6.40;82.70;;;;;;5051233;28;20799;-77
2022/01/12 13:15:19;;;;;;;13.30;9.43;;;6.70;82.20;;;;;;5016240;28;20450;-77
2022/01/12 13:17:44;;;;;;;13.67;10.80;;;7.20;79.00;;;;;;5032375;28;20918;-77
2022/01/12 13:22:47;;;;;;;12.77;10.47;;;8.10;74.20;;;;;;5032974;28;20182;-77
2022/01/12 13:25:15;;;;;;;12.50;10.30;;;8.70;74.10;;;;;;5050757;28;20426;-77
2022/01/12 13:27:43;;;;;;;12.60;10.40;;;8.90;72.10;;;;;;5051016;28;20418;-77
2022/01/12 13:30:20;;;;;;;17.03;11.23;;;9.20;71.10;;;;;;5050886;28;20537;-77
2022/01/12 13:32:54;;;;;;;12.60;10.80;;;9.50;69.30;;;;;;5032675;28;20521;-77
2022/01/12 13:35:29;;;;;;;14.60;10.53;;;9.50;68.90;;;;;;5050752;28;20461;-77
2022/01/12 13:37:57;;;;;;;13.30;10.30;;;9.60;68.00;;;;;;5032488;28;20457;-77
2022/01/12 13:40:23;;;;;;;9.30;7.87;;;9.50;67.70;;;;;;5050903;28;20421;-77
2022/01/12 13:42:54;;;;;;;14.63;10.80;;;9.90;67.20;;;;;;5050692;28;20413;-77
2022/01/12 13:45:45;;;;;;;13.90;10.10;;;9.80;63.60;;;;;;5050774;28;20441;-77
2022/01/12 13:48:16;;;;;;;14.77;10.90;;;9.90;63.00;;;;;;5049789;28;20411;-76
2022/01/12 13:50:45;;;;;;;16.33;11.50;;;10.20;61.30;;;;;;5032923;28;20424;-77
2022/01/12 13:53:11;;;;;;;19.93;11.90;;;10.40;60.20;;;;;;5050836;28;20427;-77
2022/01/12 13:55:48;;;;;;;12.97;11.20;;;10.40;59.60;;;;;;5050913;28;20422;-77
2022/01/12 13:58:14;;;;;;;17.17;11.40;;;10.30;59.50;;;;;;5050683;28;20246;-77
2022/01/12 14:00:40;;;;;;;19.53;12.20;;;9.60;62.20;;;;;;5050476;28;20422;-77
2022/01/12 14:03:18;;;;;;;13.70;10.90;;;8.10;68.40;;;;;;5031745;28;20426;-77
2022/01/12 14:05:45;;;;;;;15.07;12.00;;;7.10;75.90;;;;;;5050420;28;20715;-77
2022/01/12 14:08:14;;;;;;;17.07;11.13;;;6.40;81.70;;;;;;5050405;28;20902;-76
2022/01/12 14:10:51;;;;;;;14.97;10.80;;;5.50;85.10;;;;;;5031624;28;20435;-76
2022/01/12 14:13:17;;;;;;;16.07;11.47;;;5.10;88.20;;;;;;5049788;28;20416;-76